Flight Track Log - Related Links

Times and Time Zones

All times are in EDT time to prevent confusion due to time zone crossing. See the ASQ5941 flight status page for this flight to view local times or setup timezone preferences in your user account.

Time Position Orientation Groundspeed Altitude Reporting Facility
EDT Latitude Longitude Course Direction KTS MPH feet Rate Location/Type
Sun 05:04:42 PM 41.2614 -75.7831 210° Southwest 171 197 4,900  Level New York Center
Sun 05:05:42 PM 41.2928 -75.8325 310° West 135 155 7,000 2,182 Climbing New York Center
Sun 05:06:00 PM 41.4261 -75.9404 315° West  Level FlightAware Approximate
Sun 05:06:43 PM 41.3611 -75.8431 353° North 158 182 9,300  Level New York Center
Sun 05:07:00 PM 41.4748 -76.0275 315° West  Level FlightAware Approximate
Sun 05:07:44 PM 41.4375 -75.8572 352° North 216 249 10,000  Level New York Center
Sun 05:08:00 PM 41.5317 -76.1059 312° West  Level FlightAware Approximate
Sun 05:08:42 PM 41.5181 -75.8717 352° North 262 302 10,000  Level New York Center
Sun 05:09:00 PM 41.5858 -76.1877 307° West  Level FlightAware Approximate
Sun 05:09:41 PM 41.5933 -75.9161 336° Northwest 292 336 11,400  Level New York Center
Sun 05:10:41 PM 41.6300 -76.0272 294° West 299 344 13,500 1,289 Climbing New York Center
Sun 05:11:42 PM 41.6606 -76.1350 291° West 290 334 14,000 246 Climbing New York Center
Sun 05:12:43 PM 41.6928 -76.2517 290° West 320 368 14,000 706 Level New York Center
Sun 05:13:41 PM 41.7214 -76.3542 291° West 337 388 15,400 1,678 Climbing New York Center
Sun 05:14:41 PM 41.7536 -76.4653 291° West 326 375 17,300 2,033 Climbing New York Center
Sun 05:15:42 PM 41.7833 -76.5789 289° West 315 362 19,500 2,033 Climbing New York Center
Sun 05:16:42 PM 41.8117 -76.6817 290° West 303 349 21,400 1,700 Climbing New York Center
Sun 05:17:42 PM 41.8400 -76.7817 291° West 298 343 22,900 992 Climbing New York Center
Sun 05:18:43 PM 41.8683 -76.8789 291° West 303 349 23,400 868 Climbing New York Center
Sun 05:18:58 PM 41.8789 -76.9239 288° West 305 351 24,000 1,680 Climbing Cleveland Center
Sun 05:19:58 PM 41.9092 -77.0311 291° West 305 351 25,500 1,550 Climbing Cleveland Center
Sun 05:20:58 PM 41.9397 -77.1439 290° West 305 351 27,100 1,250 Climbing Cleveland Center
Sun 05:21:58 PM 41.9700 -77.2483 291° West 305 351 28,000 450 Climbing Cleveland Center
Sun 05:22:58 PM 42.0006 -77.3669 289° West 312 359 28,000 300 Level Cleveland Center
Sun 05:23:58 PM 42.0331 -77.4883 290° West 333 383 28,600 800 Climbing Cleveland Center
Sun 05:24:58 PM 42.0653 -77.6069 290° West 340 391 29,600 1,000 Climbing Cleveland Center
Sun 05:25:58 PM 42.0997 -77.7314 290° West 340 391 30,600 1,000 Climbing Cleveland Center
Sun 05:26:58 PM 42.1300 -77.8561 288° West 346 398 31,600 700 Climbing Cleveland Center
Sun 05:27:58 PM 42.1594 -77.9642 290° West 355 409 32,000 200 Climbing Cleveland Center
Sun 05:28:58 PM 42.1939 -78.1028 289° West 362 417 32,000  Level Cleveland Center
Sun 05:29:58 PM 42.2300 -78.2417 289° West 375 432 32,000  Level Cleveland Center
Sun 05:30:58 PM 42.2642 -78.3778 289° West 388 447 32,000 400 Level Cleveland Center
Sun 05:31:58 PM 42.3000 -78.5142 290° West 388 447 32,800 650 Climbing Cleveland Center
Sun 05:32:58 PM 42.3336 -78.6450 289° West 382 440 33,300 600 Climbing Cleveland Center
Sun 05:33:58 PM 42.3647 -78.7733 288° West 376 433 34,000 350 Climbing Cleveland Center
Sun 05:34:58 PM 42.3981 -78.9131 288° West 360 414 34,000  Level Cleveland Center
Sun 05:35:58 PM 42.4333 -79.0444 290° West 365 420 34,000 50 Level Cleveland Center
Sun 05:36:58 PM 42.4661 -79.1731 289° West 378 435 34,100 500 Climbing Cleveland Center
Sun 05:37:58 PM 42.4950 -79.3161 285° West 390 449 35,000 900 Climbing Cleveland Center
Sun 05:38:58 PM 42.5028 -79.4539 274° West 390 449 35,900 500 Climbing Cleveland Center
Sun 05:39:58 PM 42.5061 -79.5975 272° West 385 443 36,000 50 Climbing Cleveland Center
Sun 05:40:58 PM 42.5133 -79.7439 274° West 385 443 36,000  Level Cleveland Center
Sun 05:41:58 PM 42.5250 -79.8958 276° West 395 455 36,000  Level Cleveland Center
Sun 05:42:58 PM 42.5258 -80.0619 270° West 410 472 36,000  Level Cleveland Center
Sun 05:43:58 PM 42.5325 -80.2142 273° West 410 472 36,000  Level Cleveland Center
Sun 05:44:58 PM 42.5392 -80.3633 274° West 410 472 36,000  Level Cleveland Center
Sun 05:45:58 PM 42.5456 -80.5156 273° West 405 466 36,000  Level Cleveland Center
Sun 05:46:58 PM 42.5519 -80.6619 273° West 405 466 36,000  Level Cleveland Center
Sun 05:47:58 PM 42.5581 -80.8144 273° West 405 466 36,000  Level Cleveland Center
Sun 05:48:58 PM 42.5639 -80.9639 273° West 400 460 36,000  Level Cleveland Center
Sun 05:49:58 PM 42.5694 -81.1161 273° West 407 468 36,000  Level Cleveland Center
Sun 05:50:58 PM 42.5728 -81.2628 272° West 402 463 36,000  Level Cleveland Center
Sun 05:51:58 PM 42.5781 -81.4122 273° West 402 463 36,000  Level Cleveland Center
Sun 05:52:58 PM 42.5978 -81.5450 281° West 397 457 36,000  Level Cleveland Center
Sun 05:53:58 PM 42.6236 -81.6919 283° West 402 463 36,000  Level Cleveland Center
Sun 05:54:58 PM 42.6575 -81.8536 286° West 402 463 36,000  Level Cleveland Center
Sun 05:55:58 PM 42.6786 -82.0008 281° West 402 463 36,000  Level Cleveland Center
Sun 05:56:58 PM 42.7039 -82.1483 283° West 402 463 36,000  Level Cleveland Center
Sun 05:57:58 PM 42.7286 -82.3017 282° West 402 463 36,000  Level Cleveland Center
Sun 05:58:58 PM 42.7536 -82.4494 283° West 407 468 36,000  Level Cleveland Center
Sun 05:59:58 PM 42.7803 -82.6000 284° West 407 468 36,000  Level Cleveland Center
Sun 06:00:58 PM 42.8044 -82.7481 283° West 413 475 36,000  Level Cleveland Center
Sun 06:01:58 PM 42.8289 -82.8961 283° West 413 475 36,000  Level Cleveland Center
Sun 06:02:58 PM 42.8528 -83.0442 282° West 408 470 36,000  Level Cleveland Center
Sun 06:03:58 PM 42.8747 -83.1811 282° West 413 475 36,000  Level Cleveland Center
Sun 06:04:58 PM 42.8986 -83.3294 282° West 413 475 36,000  Level Cleveland Center
Sun 06:05:58 PM 42.9219 -83.4808 282° West 413 475 36,000 -300 Level Cleveland Center
Sun 06:06:58 PM 42.9472 -83.6294 283° West 413 475 35,400 -750 Descending Cleveland Center
Sun 06:07:58 PM 42.9600 -83.7778 277° West 413 475 34,500 -950 Descending Cleveland Center
Sun 06:08:58 PM 42.9475 -83.9247 263° West 402 463 33,500 -1,150 Descending Cleveland Center
Sun 06:09:58 PM 42.9325 -84.0769 262° West 402 463 32,200 -750 Descending Cleveland Center
Sun 06:10:58 PM 42.9172 -84.2322 262° West 409 471 32,000 -72 Descending Cleveland Center
Sun 06:12:44 PM 42.8908 -84.5128 263° West 405 466 32,000  Level Chicago Center
Sun 06:13:46 PM 42.8761 -84.6608 262° West 398 458 32,000  Level Chicago Center
Sun 06:14:48 PM 42.8608 -84.8081 262° West 395 455 32,000  Level Chicago Center
Sun 06:15:50 PM 42.8461 -84.9533 262° West 389 448 32,000  Level Chicago Center
Sun 06:16:52 PM 42.8300 -85.0986 261° West 388 447 32,000 -290 Level Chicago Center
Sun 06:17:54 PM 42.8136 -85.2503 262° West 400 460 31,400 -823 Descending Chicago Center
Sun 06:18:56 PM 42.7931 -85.4322 261° West 405 466 30,300 -823 Descending Chicago Center
Sun 06:19:58 PM 42.7728 -85.5789 259° West 398 458 29,700 -1,248 Descending Chicago Center
Sun 06:21:01 PM 42.7467 -85.7189 256° West 386 444 27,700 -1,968 Descending Chicago Center
Sun 06:22:03 PM 42.7239 -85.8464 256° West 358 412 25,600 -1,984 Descending Chicago Center
Sun 06:23:05 PM 42.7014 -85.9697 256° West 340 391 23,600 -2,081 Descending Chicago Center
Sun 06:24:07 PM 42.6772 -86.1008 256° West 347 399 21,300 -1,742 Descending Chicago Center
Sun 06:25:09 PM 42.6536 -86.2325 256° West 356 410 20,000 -629 Descending Chicago Center
Sun 06:26:11 PM 42.6294 -86.3550 255° West 340 391 20,000 -629 Level Chicago Center
Sun 06:27:13 PM 42.6011 -86.5075 256° West 345 397 18,700 -1,548 Descending Chicago Center
Sun 06:28:15 PM 42.5778 -86.6306 256° West 340 391 16,800 -1,839 Descending Chicago Center
Sun 06:29:17 PM 42.5544 -86.7550 256° West 340 391 14,900 -1,887 Descending Chicago Center
Sun 06:30:19 PM 42.5219 -86.8703 249° West 330 380 12,900 -1,790 Descending Chicago Center
Sun 06:31:21 PM 42.4903 -86.9856 250° West 326 375 11,200 -1,403 Descending Chicago Center
Sun 06:32:23 PM 42.4586 -87.0928 248° West 309 356 10,000 -968 Descending Chicago Center
Sun 06:33:25 PM 42.4289 -87.2081 251° West 274 315 9,200 -1,258 Descending Chicago Center
Sun 06:34:27 PM 42.4033 -87.2972 249° West 258 297 7,400 -1,500 Descending Chicago Center
Sun 06:35:29 PM 42.3808 -87.3803 250° West 240 276 6,100 -672 Descending Chicago Center
Sun 06:36:32 PM 42.3544 -87.4761 250° West 241 277 6,000 -48 Descending Chicago Center
Sun 06:37:34 PM 42.2933 -87.5164 206° Southwest 258 297 6,000  Level Chicago Center
Sun 06:38:36 PM 42.2258 -87.5547 203° Southwest 263 303 6,000 -48 Level Chicago Center
Sun 06:39:38 PM 42.1578 -87.5908 201° Southwest 264 304 5,900 -434 Descending Chicago Center
Sun 06:39:59 PM 42.1167 -87.6167 205° Southwest 265 305 5,400 -1,185 Descending Chicago TRACON
Sun 06:40:59 PM 42.0500 -87.6500 200° South 257 296 4,300 -1,200 Descending Chicago TRACON
Sun 06:41:59 PM 42.0167 -87.7167 236° Southwest 211 243 3,000 -789 Descending Chicago TRACON
Sun 06:42:53 PM 42.0000 -87.7667 246° West 168 193 2,800 -632 Descending Chicago TRACON
Sun 06:43:53 PM 42.0000 -87.8167 270° West 147 169 1,800 -850 Descending Chicago TRACON
Sun 06:44:53 PM 42.0000 -87.8667 270° West 138 159 1,100 -700 Descending Chicago TRACON

Login

Don't have an account? Register now (free) for customized features, flight alerts, and more!